Consort, Canada
Current Conditions -  °F | °C
As of 11:00 PM on Wednesday 22 Oct 2014 (Local Time) from CYKY Reporting Station
Scattered Clouds Scattered Clouds  
Wind Chill: 39°   Ceiling: Unl
Heat Index: 45°   Visibility: 15mi
Dew Point: 36°   Wind: 10mph
Humidity: 71%   Direction: 150°SSE
Pressure: 29.7"   Gusts: NA
Location:  52.02°N, 110.8°W
Report Text: CYKY 230500Z 15009KT 15SM FEW070 SCT240 07/02 A2970 RMK AC1CI3 SLP071
Loading
Personal Weather Stations






























Interactive Weather Map
Tropical Storm Tracking
New forecast layout! Learn more

10-Day Weather Forecast

Advertisements
Track Severe Weather on mobile